sensor_id;sensor_type;location;lat;lon;timestamp;pressure;altitude;pressure_sealevel;temperature;humidity
64616;BME280;51027;42.162;24.754;2022-08-14T00:00:13;99005.72;;;22.24;70.81
64616;BME280;51027;42.162;24.754;2022-08-14T00:02:39;99006.91;;;22.39;70.54
64616;BME280;51027;42.162;24.754;2022-08-14T00:05:08;99012.47;;;22.28;71.09
64616;BME280;51027;42.162;24.754;2022-08-14T00:07:34;99004.72;;;22.25;70.93
64616;BME280;51027;42.162;24.754;2022-08-14T00:10:01;98981.41;;;22.07;71.14
64616;BME280;51027;42.162;24.754;2022-08-14T00:12:26;98997.91;;;22.30;70.88
64616;BME280;51027;42.162;24.754;2022-08-14T00:14:52;98993.22;;;22.32;71.37
64616;BME280;51027;42.162;24.754;2022-08-14T00:17:18;98978.66;;;22.35;70.56
64616;BME280;51027;42.162;24.754;2022-08-14T00:19:43;98986.28;;;22.39;70.57
64616;BME280;51027;42.162;24.754;2022-08-14T00:22:09;98985.56;;;22.37;70.71
64616;BME280;51027;42.162;24.754;2022-08-14T00:24:36;98987.94;;;22.40;70.45
64616;BME280;51027;42.162;24.754;2022-08-14T00:27:01;98989.88;;;22.48;70.37
64616;BME280;51027;42.162;24.754;2022-08-14T00:29:29;98989.78;;;22.58;70.09
64616;BME280;51027;42.162;24.754;2022-08-14T00:31:55;98983.88;;;22.54;70.17
64616;BME280;51027;42.162;24.754;2022-08-14T00:34:20;98980.84;;;22.49;70.48
64616;BME280;51027;42.162;24.754;2022-08-14T00:36:46;98978.50;;;22.54;70.36
64616;BME280;51027;42.162;24.754;2022-08-14T00:39:13;98984.19;;;22.51;70.61
64616;BME280;51027;42.162;24.754;2022-08-14T00:41:39;98987.19;;;22.48;70.68
64616;BME280;51027;42.162;24.754;2022-08-14T00:44:05;98985.47;;;22.47;70.76
64616;BME280;51027;42.162;24.754;2022-08-14T00:46:31;98966.00;;;22.45;70.28
64616;BME280;51027;42.162;24.754;2022-08-14T00:48:56;98985.28;;;22.40;70.37
64616;BME280;51027;42.162;24.754;2022-08-14T00:51:22;98962.88;;;22.32;70.39
64616;BME280;51027;42.162;24.754;2022-08-14T00:53:48;98970.59;;;22.35;70.42
64616;BME280;51027;42.162;24.754;2022-08-14T00:56:15;98967.31;;;22.41;70.49
64616;BME280;51027;42.162;24.754;2022-08-14T00:58:41;98944.84;;;22.24;70.66
64616;BME280;51027;42.162;24.754;2022-08-14T01:01:08;98971.25;;;22.29;70.32
64616;BME280;51027;42.162;24.754;2022-08-14T01:03:35;98967.50;;;22.39;70.57
64616;BME280;51027;42.162;24.754;2022-08-14T01:06:03;98964.72;;;22.49;69.83
64616;BME280;51027;42.162;24.754;2022-08-14T01:08:29;98974.16;;;22.53;69.94
64616;BME280;51027;42.162;24.754;2022-08-14T01:10:56;98978.84;;;22.51;69.51
64616;BME280;51027;42.162;24.754;2022-08-14T01:13:31;98973.00;;;22.56;69.38
64616;BME280;51027;42.162;24.754;2022-08-14T01:15:58;98968.22;;;22.67;68.82
64616;BME280;51027;42.162;24.754;2022-08-14T01:18:26;98965.09;;;22.54;69.27
64616;BME280;51027;42.162;24.754;2022-08-14T01:21:11;98964.84;;;22.48;69.66
64616;BME280;51027;42.162;24.754;2022-08-14T01:23:47;98957.28;;;22.43;69.25
64616;BME280;51027;42.162;24.754;2022-08-14T01:26:16;98950.59;;;22.47;69.20
64616;BME280;51027;42.162;24.754;2022-08-14T01:28:51;98961.66;;;22.44;69.49
64616;BME280;51027;42.162;24.754;2022-08-14T01:31:21;98962.50;;;22.45;69.49
64616;BME280;51027;42.162;24.754;2022-08-14T01:33:48;98961.88;;;22.33;69.86
64616;BME280;51027;42.162;24.754;2022-08-14T01:36:16;98955.13;;;22.29;70.12
64616;BME280;51027;42.162;24.754;2022-08-14T01:38:43;98965.66;;;22.40;69.86
64616;BME280;51027;42.162;24.754;2022-08-14T01:41:15;98961.19;;;22.31;70.17
64616;BME280;51027;42.162;24.754;2022-08-14T01:43:50;98967.31;;;22.41;69.90
64616;BME280;51027;42.162;24.754;2022-08-14T01:46:17;98963.25;;;22.37;70.23
64616;BME280;51027;42.162;24.754;2022-08-14T01:48:44;98968.31;;;22.40;70.41
64616;BME280;51027;42.162;24.754;2022-08-14T01:51:11;98968.31;;;22.40;70.32
64616;BME280;51027;42.162;24.754;2022-08-14T01:53:42;98950.31;;;22.32;70.57
64616;BME280;51027;42.162;24.754;2022-08-14T01:56:09;98968.31;;;22.40;70.49
64616;BME280;51027;42.162;24.754;2022-08-14T01:58:35;98964.66;;;22.41;70.56
64616;BME280;51027;42.162;24.754;2022-08-14T02:01:00;98964.56;;;22.33;71.38
64616;BME280;51027;42.162;24.754;2022-08-14T02:03:31;98960.72;;;22.35;71.32
64616;BME280;51027;42.162;24.754;2022-08-14T02:05:58;98962.88;;;22.32;71.60
64616;BME280;51027;42.162;24.754;2022-08-14T02:08:25;98938.97;;;22.21;71.59
64616;BME280;51027;42.162;24.754;2022-08-14T02:10:52;98960.88;;;22.34;71.57
64616;BME280;51027;42.162;24.754;2022-08-14T02:13:38;98953.50;;;22.36;71.58
64616;BME280;51027;42.162;24.754;2022-08-14T02:16:04;98956.50;;;22.33;71.54
64616;BME280;51027;42.162;24.754;2022-08-14T02:18:29;98952.38;;;22.38;71.72
64616;BME280;51027;42.162;24.754;2022-08-14T02:20:55;98950.66;;;22.37;71.91
64616;BME280;51027;42.162;24.754;2022-08-14T02:23:22;98945.09;;;22.31;71.89
64616;BME280;51027;42.162;24.754;2022-08-14T02:25:48;98946.78;;;22.32;71.72
64616;BME280;51027;42.162;24.754;2022-08-14T02:28:13;98908.41;;;22.04;71.57
64616;BME280;51027;42.162;24.754;2022-08-14T02:30:39;98945.41;;;22.28;71.73
64616;BME280;51027;42.162;24.754;2022-08-14T02:33:05;98935.44;;;22.20;71.68
64616;BME280;51027;42.162;24.754;2022-08-14T02:35:31;98895.75;;;21.96;71.83
64616;BME280;51027;42.162;24.754;2022-08-14T02:37:57;98939.63;;;22.23;71.67
64616;BME280;51027;42.162;24.754;2022-08-14T02:40:23;98920.97;;;22.03;71.98
64616;BME280;51027;42.162;24.754;2022-08-14T02:42:48;98938.66;;;22.24;71.65
64616;BME280;51027;42.162;24.754;2022-08-14T02:45:14;98933.97;;;22.26;71.47
64616;BME280;51027;42.162;24.754;2022-08-14T02:47:39;98912.72;;;22.14;71.11
64616;BME280;51027;42.162;24.754;2022-08-14T02:50:05;98921.88;;;22.22;71.25
64616;BME280;51027;42.162;24.754;2022-08-14T02:52:31;98930.69;;;22.32;70.81
64616;BME280;51027;42.162;24.754;2022-08-14T02:54:58;98929.31;;;22.28;70.82
64616;BME280;51027;42.162;24.754;2022-08-14T02:57:23;98929.44;;;22.26;70.95
64616;BME280;51027;42.162;24.754;2022-08-14T02:59:50;98928.53;;;22.18;71.13
64616;BME280;51027;42.162;24.754;2022-08-14T03:02:17;98929.91;;;22.22;70.81
64616;BME280;51027;42.162;24.754;2022-08-14T03:04:42;98930.44;;;22.25;70.73
64616;BME280;51027;42.162;24.754;2022-08-14T03:07:08;98929.75;;;22.23;70.95
64616;BME280;51027;42.162;24.754;2022-08-14T03:09:37;98928.38;;;21.92;72.27
64616;BME280;51027;42.162;24.754;2022-08-14T03:12:04;98897.59;;;21.78;72.13
64616;BME280;51027;42.162;24.754;2022-08-14T03:14:30;98919.50;;;21.91;72.41
64616;BME280;51027;42.162;24.754;2022-08-14T03:16:59;98907.69;;;21.84;72.22
64616;BME280;51027;42.162;24.754;2022-08-14T03:19:25;98907.69;;;21.84;72.19
64616;BME280;51027;42.162;24.754;2022-08-14T03:21:50;98920.56;;;21.80;72.69
64616;BME280;51027;42.162;24.754;2022-08-14T03:24:16;98917.03;;;21.80;72.79
64616;BME280;51027;42.162;24.754;2022-08-14T03:26:45;98899.91;;;21.63;73.04
64616;BME280;51027;42.162;24.754;2022-08-14T03:29:14;98908.00;;;21.81;72.91
64616;BME280;51027;42.162;24.754;2022-08-14T03:31:40;98916.09;;;21.44;74.09
64616;BME280;51027;42.162;24.754;2022-08-14T03:34:07;98924.50;;;21.59;73.77
64616;BME280;51027;42.162;24.754;2022-08-14T03:36:35;98930.28;;;21.54;74.06
64616;BME280;51027;42.162;24.754;2022-08-14T03:39:04;98928.41;;;21.64;73.93
64616;BME280;51027;42.162;24.754;2022-08-14T03:41:30;98930.84;;;21.58;74.36
64616;BME280;51027;42.162;24.754;2022-08-14T03:43:57;98927.09;;;21.41;74.81
64616;BME280;51027;42.162;24.754;2022-08-14T03:46:25;98932.53;;;21.59;74.32
64616;BME280;51027;42.162;24.754;2022-08-14T03:48:53;98935.44;;;21.65;74.49
64616;BME280;51027;42.162;24.754;2022-08-14T03:51:19;98931.97;;;21.55;74.87
64616;BME280;51027;42.162;24.754;2022-08-14T03:53:45;98941.16;;;21.52;75.31
64616;BME280;51027;42.162;24.754;2022-08-14T03:56:13;98941.50;;;21.40;76.54
64616;BME280;51027;42.162;24.754;2022-08-14T03:58:41;98954.06;;;21.39;76.85
64616;BME280;51027;42.162;24.754;2022-08-14T04:01:08;98942.88;;;21.44;76.85
64616;BME280;51027;42.162;24.754;2022-08-14T04:03:34;98934.75;;;21.36;77.27
64616;BME280;51027;42.162;24.754;2022-08-14T04:06:00;98952.22;;;21.40;77.61
64616;BME280;51027;42.162;24.754;2022-08-14T04:08:25;98945.56;;;21.44;78.04
64616;BME280;51027;42.162;24.754;2022-08-14T04:10:51;98950.91;;;21.44;78.07
64616;BME280;51027;42.162;24.754;2022-08-14T04:13:16;98950.50;;;21.48;78.26
64616;BME280;51027;42.162;24.754;2022-08-14T04:15:46;98960.22;;;21.49;78.49
64616;BME280;51027;42.162;24.754;2022-08-14T04:18:12;98965.28;;;21.52;78.42
64616;BME280;51027;42.162;24.754;2022-08-14T04:20:39;98957.78;;;21.56;78.43
64616;BME280;51027;42.162;24.754;2022-08-14T04:23:07;98944.97;;;21.50;78.28
64616;BME280;51027;42.162;24.754;2022-08-14T04:25:33;98958.88;;;21.63;78.14
64616;BME280;51027;42.162;24.754;2022-08-14T04:28:00;98960.41;;;21.66;77.97
64616;BME280;51027;42.162;24.754;2022-08-14T04:30:25;98937.78;;;21.50;77.80
64616;BME280;51027;42.162;24.754;2022-08-14T04:32:55;98966.50;;;21.68;78.09
64616;BME280;51027;42.162;24.754;2022-08-14T04:35:21;98965.34;;;21.70;78.15
64616;BME280;51027;42.162;24.754;2022-08-14T04:37:47;98968.72;;;21.72;77.60
64616;BME280;51027;42.162;24.754;2022-08-14T04:40:31;98962.81;;;21.69;77.69
64616;BME280;51027;42.162;24.754;2022-08-14T04:43:15;98941.00;;;21.54;77.69
64616;BME280;51027;42.162;24.754;2022-08-14T04:45:59;98933.56;;;21.48;77.69
64616;BME280;51027;42.162;24.754;2022-08-14T04:48:26;98953.47;;;21.73;77.26
64616;BME280;51027;42.162;24.754;2022-08-14T04:50:53;98958.41;;;21.77;77.13
64616;BME280;51027;42.162;24.754;2022-08-14T04:53:29;98962.16;;;21.84;76.91
64616;BME280;51027;42.162;24.754;2022-08-14T04:55:56;98963.16;;;21.83;76.67
64616;BME280;51027;42.162;24.754;2022-08-14T04:58:24;98958.56;;;21.94;76.71
64616;BME280;51027;42.162;24.754;2022-08-14T05:00:51;98922.41;;;21.80;76.32
64616;BME280;51027;42.162;24.754;2022-08-14T05:03:19;98955.81;;;21.58;78.10
64616;BME280;51027;42.162;24.754;2022-08-14T05:05:52;98962.91;;;21.77;77.60
64616;BME280;51027;42.162;24.754;2022-08-14T05:08:18;98931.69;;;21.58;77.58
64616;BME280;51027;42.162;24.754;2022-08-14T05:10:50;98960.47;;;21.83;77.59
64616;BME280;51027;42.162;24.754;2022-08-14T05:13:17;98893.41;;;21.66;77.04
64616;BME280;51027;42.162;24.754;2022-08-14T05:15:42;98946.41;;;21.99;76.74
64616;BME280;51027;42.162;24.754;2022-08-14T05:18:32;98931.69;;;22.03;76.63
64616;BME280;51027;42.162;24.754;2022-08-14T05:20:59;98941.72;;;22.29;75.54
64616;BME280;51027;42.162;24.754;2022-08-14T05:23:27;98935.88;;;22.51;74.59
64616;BME280;51027;42.162;24.754;2022-08-14T05:25:55;98933.41;;;22.76;73.61
64616;BME280;51027;42.162;24.754;2022-08-14T05:28:30;98938.38;;;22.88;72.50
64616;BME280;51027;42.162;24.754;2022-08-14T05:30:59;98936.69;;;22.87;72.31
64616;BME280;51027;42.162;24.754;2022-08-14T05:33:26;98939.25;;;22.53;72.94
64616;BME280;51027;42.162;24.754;2022-08-14T05:35:54;98940.69;;;22.83;72.09
64616;BME280;51027;42.162;24.754;2022-08-14T05:38:26;98934.31;;;22.66;71.33
64616;BME280;51027;42.162;24.754;2022-08-14T05:40:54;98942.44;;;22.75;71.79
64616;BME280;51027;42.162;24.754;2022-08-14T05:43:21;98918.13;;;22.94;71.02
64616;BME280;51027;42.162;24.754;2022-08-14T05:45:47;98942.06;;;23.39;69.80
64616;BME280;51027;42.162;24.754;2022-08-14T05:48:14;98948.09;;;23.07;69.85
64616;BME280;51027;42.162;24.754;2022-08-14T05:50:41;98941.63;;;22.92;68.60
64616;BME280;51027;42.162;24.754;2022-08-14T05:53:07;98926.91;;;22.60;70.42
64616;BME280;51027;42.162;24.754;2022-08-14T05:55:32;98944.81;;;22.95;70.43
64616;BME280;51027;42.162;24.754;2022-08-14T05:58:03;98946.94;;;22.48;72.47
64616;BME280;51027;42.162;24.754;2022-08-14T06:00:34;98944.69;;;22.79;71.70
64616;BME280;51027;42.162;24.754;2022-08-14T06:03:03;98943.38;;;22.48;72.73
64616;BME280;51027;42.162;24.754;2022-08-14T06:05:29;98944.06;;;22.67;72.33
64616;BME280;51027;42.162;24.754;2022-08-14T06:07:59;98940.56;;;22.49;71.54
64616;BME280;51027;42.162;24.754;2022-08-14T06:10:26;98945.78;;;22.51;71.91
64616;BME280;51027;42.162;24.754;2022-08-14T06:12:52;98947.00;;;22.56;72.30
64616;BME280;51027;42.162;24.754;2022-08-14T06:15:18;98950.22;;;22.42;73.07
64616;BME280;51027;42.162;24.754;2022-08-14T06:17:46;98955.59;;;22.24;73.70
64616;BME280;51027;42.162;24.754;2022-08-14T06:20:12;98953.50;;;22.54;73.40
64616;BME280;51027;42.162;24.754;2022-08-14T06:22:39;98931.97;;;22.10;73.27
64616;BME280;51027;42.162;24.754;2022-08-14T06:25:05;98949.69;;;22.21;73.00
64616;BME280;51027;42.162;24.754;2022-08-14T06:27:38;98958.56;;;22.21;72.06
64616;BME280;51027;42.162;24.754;2022-08-14T06:30:07;98960.47;;;22.11;72.75
64616;BME280;51027;42.162;24.754;2022-08-14T06:32:33;98935.91;;;22.06;72.81
64616;BME280;51027;42.162;24.754;2022-08-14T06:34:59;98958.66;;;22.02;73.42
64616;BME280;51027;42.162;24.754;2022-08-14T06:37:25;98967.38;;;22.13;73.67
64616;BME280;51027;42.162;24.754;2022-08-14T06:39:51;98963.41;;;22.35;73.08
64616;BME280;51027;42.162;24.754;2022-08-14T06:42:17;98969.84;;;22.25;73.65
64616;BME280;51027;42.162;24.754;2022-08-14T06:44:42;98973.34;;;22.25;73.92
64616;BME280;51027;42.162;24.754;2022-08-14T06:47:09;98968.91;;;22.16;74.75
64616;BME280;51027;42.162;24.754;2022-08-14T06:49:36;98975.75;;;22.28;74.31
64616;BME280;51027;42.162;24.754;2022-08-14T06:52:02;98970.16;;;22.39;73.90
64616;BME280;51027;42.162;24.754;2022-08-14T06:54:29;98964.78;;;22.57;72.51
64616;BME280;51027;42.162;24.754;2022-08-14T06:56:55;98957.72;;;22.56;72.28
64616;BME280;51027;42.162;24.754;2022-08-14T06:59:21;98951.81;;;22.35;73.07
64616;BME280;51027;42.162;24.754;2022-08-14T07:01:46;98955.97;;;22.65;72.07
64616;BME280;51027;42.162;24.754;2022-08-14T07:04:30;98961.66;;;22.44;72.56
64616;BME280;51027;42.162;24.754;2022-08-14T07:07:14;98968.84;;;22.79;71.94
64616;BME280;51027;42.162;24.754;2022-08-14T07:09:40;98966.41;;;22.86;71.56
64616;BME280;51027;42.162;24.754;2022-08-14T07:12:05;98961.72;;;22.88;71.71
64616;BME280;51027;42.162;24.754;2022-08-14T07:14:31;98958.50;;;22.84;71.23
64616;BME280;51027;42.162;24.754;2022-08-14T07:16:56;98957.72;;;22.56;72.60
64616;BME280;51027;42.162;24.754;2022-08-14T07:19:22;98964.84;;;22.65;72.41
64616;BME280;51027;42.162;24.754;2022-08-14T07:21:47;98971.69;;;22.60;72.28
64616;BME280;51027;42.162;24.754;2022-08-14T07:24:13;98945.47;;;22.54;72.11
64616;BME280;51027;42.162;24.754;2022-08-14T07:26:39;98973.06;;;22.82;71.99
64616;BME280;51027;42.162;24.754;2022-08-14T07:29:05;98973.16;;;22.90;71.36
64616;BME280;51027;42.162;24.754;2022-08-14T07:31:30;98977.19;;;22.76;71.53
64616;BME280;51027;42.162;24.754;2022-08-14T07:33:56;98971.22;;;22.82;71.29
64616;BME280;51027;42.162;24.754;2022-08-14T07:36:21;98965.44;;;22.77;71.08
64616;BME280;51027;42.162;24.754;2022-08-14T07:38:47;98958.41;;;22.76;70.70
64616;BME280;51027;42.162;24.754;2022-08-14T07:41:13;98980.59;;;22.60;71.29
64616;BME280;51027;42.162;24.754;2022-08-14T07:43:39;98977.59;;;22.46;71.97
64616;BME280;51027;42.162;24.754;2022-08-14T07:46:05;98980.13;;;22.47;71.92
64616;BME280;51027;42.162;24.754;2022-08-14T07:48:31;98983.44;;;22.41;72.56
64616;BME280;51027;42.162;24.754;2022-08-14T07:50:57;98979.75;;;22.42;72.95
64616;BME280;51027;42.162;24.754;2022-08-14T07:53:22;98978.44;;;22.28;74.38
64616;BME280;51027;42.162;24.754;2022-08-14T07:55:48;98980.72;;;22.23;74.87
64616;BME280;51027;42.162;24.754;2022-08-14T07:58:14;98983.47;;;22.13;75.96
64616;BME280;51027;42.162;24.754;2022-08-14T08:00:40;98994.28;;;21.94;77.07
64616;BME280;51027;42.162;24.754;2022-08-14T08:03:07;98987.69;;;21.51;79.25
64616;BME280;51027;42.162;24.754;2022-08-14T08:05:36;98983.25;;;21.23;81.49
64616;BME280;51027;42.162;24.754;2022-08-14T08:08:03;98977.69;;;20.87;84.28
64616;BME280;51027;42.162;24.754;2022-08-14T08:10:28;98985.03;;;20.85;85.27
64616;BME280;51027;42.162;24.754;2022-08-14T08:13:06;98986.28;;;20.62;85.92
64616;BME280;51027;42.162;24.754;2022-08-14T08:15:35;98987.41;;;20.79;85.83
64616;BME280;51027;42.162;24.754;2022-08-14T08:18:04;98985.56;;;20.98;86.77
64616;BME280;51027;42.162;24.754;2022-08-14T08:20:35;98983.75;;;20.51;88.11
64616;BME280;51027;42.162;24.754;2022-08-14T08:23:03;98993.91;;;20.57;89.41
64616;BME280;51027;42.162;24.754;2022-08-14T08:25:32;98989.66;;;20.83;90.16
64616;BME280;51027;42.162;24.754;2022-08-14T08:30:29;98993.16;;;20.93;90.62
64616;BME280;51027;42.162;24.754;2022-08-14T08:32:56;98968.28;;;20.64;90.32
64616;BME280;51027;42.162;24.754;2022-08-14T08:35:24;98987.25;;;20.80;91.27
64616;BME280;51027;42.162;24.754;2022-08-14T08:37:51;98982.34;;;20.56;88.80
64616;BME280;51027;42.162;24.754;2022-08-14T08:40:22;98990.09;;;20.79;89.89
64616;BME280;51027;42.162;24.754;2022-08-14T08:42:48;98980.50;;;20.95;89.92
64616;BME280;51027;42.162;24.754;2022-08-14T08:45:15;98996.97;;;20.91;90.60
64616;BME280;51027;42.162;24.754;2022-08-14T08:47:41;98995.56;;;20.96;90.65
64616;BME280;51027;42.162;24.754;2022-08-14T08:50:21;98975.72;;;20.70;90.71
64616;BME280;51027;42.162;24.754;2022-08-14T08:52:51;98964.72;;;20.83;91.50
64616;BME280;51027;42.162;24.754;2022-08-14T08:55:28;99004.31;;;20.69;91.67
64616;BME280;51027;42.162;24.754;2022-08-14T08:57:59;98996.88;;;20.54;91.70
64616;BME280;51027;42.162;24.754;2022-08-14T09:00:29;98994.38;;;20.22;92.83
64616;BME280;51027;42.162;24.754;2022-08-14T09:03:01;98989.94;;;20.61;91.96
64616;BME280;51027;42.162;24.754;2022-08-14T09:05:28;98992.63;;;20.70;89.58
64616;BME280;51027;42.162;24.754;2022-08-14T09:08:08;98989.41;;;20.57;89.12
64616;BME280;51027;42.162;24.754;2022-08-14T09:10:34;98980.53;;;20.47;89.57
64616;BME280;51027;42.162;24.754;2022-08-14T09:12:59;98981.50;;;20.56;89.95
64616;BME280;51027;42.162;24.754;2022-08-14T09:15:26;98989.09;;;20.89;89.33
64616;BME280;51027;42.162;24.754;2022-08-14T09:17:53;98977.09;;;20.93;89.46
64616;BME280;51027;42.162;24.754;2022-08-14T09:20:18;98978.19;;;21.10;88.99
64616;BME280;51027;42.162;24.754;2022-08-14T09:22:44;98979.56;;;21.24;87.44
64616;BME280;51027;42.162;24.754;2022-08-14T09:25:11;98982.25;;;21.34;86.65
64616;BME280;51027;42.162;24.754;2022-08-14T09:27:37;98978.72;;;21.33;87.09
64616;BME280;51027;42.162;24.754;2022-08-14T09:30:05;98971.44;;;21.16;88.66
64616;BME280;51027;42.162;24.754;2022-08-14T09:32:41;98987.47;;;21.35;87.96
64616;BME280;51027;42.162;24.754;2022-08-14T09:35:22;98986.91;;;21.22;87.45
64616;BME280;51027;42.162;24.754;2022-08-14T09:38:15;98987.22;;;21.09;88.58
64616;BME280;51027;42.162;24.754;2022-08-14T09:43:53;98971.03;;;21.01;86.56
64616;BME280;51027;42.162;24.754;2022-08-14T09:46:23;98972.63;;;20.84;87.55
64616;BME280;51027;42.162;24.754;2022-08-14T09:49:05;98967.97;;;20.96;87.93
64616;BME280;51027;42.162;24.754;2022-08-14T09:51:32;98975.25;;;21.04;88.71
64616;BME280;51027;42.162;24.754;2022-08-14T09:54:05;98969.78;;;20.95;90.51
64616;BME280;51027;42.162;24.754;2022-08-14T09:56:46;98963.28;;;20.98;90.61
64616;BME280;51027;42.162;24.754;2022-08-14T09:59:14;98965.69;;;20.82;90.41
64616;BME280;51027;42.162;24.754;2022-08-14T10:01:41;98965.31;;;20.48;90.85
64616;BME280;51027;42.162;24.754;2022-08-14T10:04:25;98982.75;;;20.71;90.98
64616;BME280;51027;42.162;24.754;2022-08-14T10:06:51;98978.84;;;20.65;92.56
64616;BME280;51027;42.162;24.754;2022-08-14T10:09:17;98989.25;;;20.59;90.22
64616;BME280;51027;42.162;24.754;2022-08-14T10:11:54;98969.09;;;20.35;91.98
64616;BME280;51027;42.162;24.754;2022-08-14T10:14:21;98963.03;;;20.33;94.15
64616;BME280;51027;42.162;24.754;2022-08-14T10:16:54;98960.06;;;20.27;94.81
64616;BME280;51027;42.162;24.754;2022-08-14T10:19:22;98949.22;;;20.28;95.92
64616;BME280;51027;42.162;24.754;2022-08-14T10:22:01;98937.81;;;20.07;98.25
64616;BME280;51027;42.162;24.754;2022-08-14T10:24:35;98929.59;;;19.89;100.00
64616;BME280;51027;42.162;24.754;2022-08-14T10:27:13;98932.03;;;20.21;100.00
64616;BME280;51027;42.162;24.754;2022-08-14T10:29:46;98929.94;;;20.25;100.00
64616;BME280;51027;42.162;24.754;2022-08-14T10:32:12;98931.03;;;20.22;100.00
64616;BME280;51027;42.162;24.754;2022-08-14T10:34:38;98928.97;;;20.26;100.00
64616;BME280;51027;42.162;24.754;2022-08-14T10:37:10;98924.03;;;20.40;100.00
64616;BME280;51027;42.162;24.754;2022-08-14T10:39:38;98919.13;;;20.46;100.00
64616;BME280;51027;42.162;24.754;2022-08-14T10:42:06;98916.44;;;20.75;100.00
64616;BME280;51027;42.162;24.754;2022-08-14T10:44:40;98927.81;;;20.86;100.00
64616;BME280;51027;42.162;24.754;2022-08-14T10:47:07;98924.44;;;20.84;100.00
64616;BME280;51027;42.162;24.754;2022-08-14T10:49:37;98926.13;;;20.85;98.97
64616;BME280;51027;42.162;24.754;2022-08-14T10:52:09;98923.28;;;20.96;96.99
64616;BME280;51027;42.162;24.754;2022-08-14T10:57:29;98904.63;;;21.05;94.52
64616;BME280;51027;42.162;24.754;2022-08-14T10:59:57;98907.06;;;20.98;94.62
64616;BME280;51027;42.162;24.754;2022-08-14T11:02:28;98900.19;;;20.95;95.76
64616;BME280;51027;42.162;24.754;2022-08-14T11:07:36;98901.41;;;21.01;96.27
64616;BME280;51027;42.162;24.754;2022-08-14T11:10:10;98908.31;;;21.04;97.99
64616;BME280;51027;42.162;24.754;2022-08-14T11:12:46;98911.25;;;21.10;98.15
64616;BME280;51027;42.162;24.754;2022-08-14T11:15:19;98913.13;;;21.00;98.82
64616;BME280;51027;42.162;24.754;2022-08-14T11:17:46;98906.19;;;21.07;98.71
64616;BME280;51027;42.162;24.754;2022-08-14T11:20:15;98907.16;;;21.16;96.58
64616;BME280;51027;42.162;24.754;2022-08-14T11:22:41;98912.38;;;21.17;97.08
64616;BME280;51027;42.162;24.754;2022-08-14T11:25:13;98920.56;;;21.16;95.81
64616;BME280;51027;42.162;24.754;2022-08-14T11:27:41;98918.28;;;21.21;95.45
64616;BME280;51027;42.162;24.754;2022-08-14T11:30:13;98931.25;;;21.25;96.61
64616;BME280;51027;42.162;24.754;2022-08-14T11:32:40;98937.56;;;21.34;95.47
64616;BME280;51027;42.162;24.754;2022-08-14T11:35:14;98935.19;;;21.21;95.15
64616;BME280;51027;42.162;24.754;2022-08-14T11:40:22;98927.97;;;21.32;94.86
64616;BME280;51027;42.162;24.754;2022-08-14T11:42:50;98908.69;;;21.28;94.01
64616;BME280;51027;42.162;24.754;2022-08-14T11:45:24;98914.19;;;21.26;93.33
64616;BME280;51027;42.162;24.754;2022-08-14T11:47:53;98931.94;;;21.37;93.78
64616;BME280;51027;42.162;24.754;2022-08-14T11:50:23;98924.91;;;21.17;94.39
64616;BME280;51027;42.162;24.754;2022-08-14T11:52:50;98942.53;;;21.19;94.61
64616;BME280;51027;42.162;24.754;2022-08-14T11:55:19;98928.47;;;21.08;93.94
64616;BME280;51027;42.162;24.754;2022-08-14T11:57:45;98930.69;;;21.12;92.21
64616;BME280;51027;42.162;24.754;2022-08-14T12:00:14;98934.09;;;21.05;93.02
64616;BME280;51027;42.162;24.754;2022-08-14T12:02:55;98933.84;;;20.98;92.44
64616;BME280;51027;42.162;24.754;2022-08-14T12:05:35;98936.56;;;20.79;94.18
64616;BME280;51027;42.162;24.754;2022-08-14T12:08:04;98939.19;;;20.98;94.31
64616;BME280;51027;42.162;24.754;2022-08-14T12:10:37;98941.16;;;21.06;94.10
64616;BME280;51027;42.162;24.754;2022-08-14T12:13:11;98948.34;;;21.05;94.40
64616;BME280;51027;42.162;24.754;2022-08-14T12:15:38;98953.56;;;20.97;95.05
64616;BME280;51027;42.162;24.754;2022-08-14T12:18:04;98948.38;;;20.86;96.16
64616;BME280;51027;42.162;24.754;2022-08-14T12:20:35;98944.88;;;20.76;96.43
64616;BME280;51027;42.162;24.754;2022-08-14T12:23:06;98938.91;;;20.91;97.14
64616;BME280;51027;42.162;24.754;2022-08-14T12:25:33;98936.84;;;20.85;97.53
64616;BME280;51027;42.162;24.754;2022-08-14T12:28:10;98938.91;;;20.91;97.87
64616;BME280;51027;42.162;24.754;2022-08-14T12:30:41;98922.34;;;20.68;99.18
64616;BME280;51027;42.162;24.754;2022-08-14T12:33:28;98930.78;;;20.74;99.54
64616;BME280;51027;42.162;24.754;2022-08-14T12:35:56;98927.31;;;20.44;100.00
64616;BME280;51027;42.162;24.754;2022-08-14T12:38:31;98942.47;;;20.53;100.00
64616;BME280;51027;42.162;24.754;2022-08-14T12:40:58;98944.19;;;20.64;100.00
64616;BME280;51027;42.162;24.754;2022-08-14T12:43:25;98951.94;;;20.57;100.00
64616;BME280;51027;42.162;24.754;2022-08-14T12:45:55;98956.84;;;20.52;100.00
64616;BME280;51027;42.162;24.754;2022-08-14T12:48:22;98979.09;;;20.43;100.00
64616;BME280;51027;42.162;24.754;2022-08-14T12:50:49;98981.47;;;20.27;100.00
64616;BME280;51027;42.162;24.754;2022-08-14T12:53:19;98979.06;;;20.24;100.00
64616;BME280;51027;42.162;24.754;2022-08-14T12:55:57;98972.78;;;20.44;100.00
64616;BME280;51027;42.162;24.754;2022-08-14T12:58:27;98942.47;;;20.34;100.00
64616;BME280;51027;42.162;24.754;2022-08-14T13:00:54;98945.00;;;20.35;100.00
64616;BME280;51027;42.162;24.754;2022-08-14T13:03:28;98944.31;;;20.33;100.00
64616;BME280;51027;42.162;24.754;2022-08-14T13:05:54;98899.81;;;20.23;100.00
64616;BME280;51027;42.162;24.754;2022-08-14T13:08:22;98914.44;;;20.28;100.00
64616;BME280;51027;42.162;24.754;2022-08-14T13:10:50;98896.88;;;20.26;100.00